Airport View

Enter AWOS ICAO identifier for current METAR.

ex. KFNL

KSPF 251550Z AUTO 30011KT 1 1/4SM HZ SCT006 BKN012 OVC027 M13/M16 A3043 RMK AO2 PWINO

25 Oct 2020 15:50

Frequency: 118.325

Phone: 605-642-8536

Other Area AWOS: KW43 - KRCA - KRAP - KECS

TAF AMD KRCA 251200Z 2512/2617 36012KT 3200 -SN BR OVC005 QNH3035INS BECMG 2513/2514 34012G18KT 4800 -SN BR OVC008 QNH3038INS BECMG 2517/2518 34015G25KT 4800 BLSN OVC020 QNH3039INS BECMG 2601/2602 32012KT 9999 NSW BKN030 QNH3042INS TXM07/2520Z TNM16/2609Z LAST NO AMDS AFT 2512 NEXT 2611